sensor_id;sensor_type;location;lat;lon;timestamp;P1;durP1;ratioP1;P2;durP2;ratioP2
36715;SDS011;22699;51.034;3.730;2023-12-20T00:16:21;9.07;;;2.63;;
36715;SDS011;22699;51.034;3.730;2023-12-20T00:18:50;12.02;;;4.03;;
36715;SDS011;22699;51.034;3.730;2023-12-20T00:30:30;16.77;;;3.70;;
36715;SDS011;22699;51.034;3.730;2023-12-20T00:36:50;12.20;;;4.28;;
36715;SDS011;22699;51.034;3.730;2023-12-20T00:39:21;16.02;;;3.70;;
36715;SDS011;22699;51.034;3.730;2023-12-20T00:42:04;14.77;;;3.65;;
36715;SDS011;22699;51.034;3.730;2023-12-20T00:44:33;19.60;;;4.03;;
36715;SDS011;22699;51.034;3.730;2023-12-20T00:47:10;17.75;;;4.03;;
36715;SDS011;22699;51.034;3.730;2023-12-20T00:49:40;13.15;;;4.38;;
36715;SDS011;22699;51.034;3.730;2023-12-20T00:52:14;10.85;;;4.00;;
36715;SDS011;22699;51.034;3.730;2023-12-20T00:54:50;13.40;;;3.78;;
36715;SDS011;22699;51.034;3.730;2023-12-20T00:57:32;14.95;;;3.85;;
36715;SDS011;22699;51.034;3.730;2023-12-20T01:03:22;14.98;;;3.80;;
36715;SDS011;22699;51.034;3.730;2023-12-20T01:09:26;11.32;;;3.70;;
36715;SDS011;22699;51.034;3.730;2023-12-20T01:11:57;10.35;;;3.58;;
36715;SDS011;22699;51.034;3.730;2023-12-20T01:14:23;12.93;;;3.88;;
36715;SDS011;22699;51.034;3.730;2023-12-20T01:19:51;13.98;;;3.60;;
36715;SDS011;22699;51.034;3.730;2023-12-20T01:22:57;16.35;;;3.60;;
36715;SDS011;22699;51.034;3.730;2023-12-20T01:25:30;17.83;;;3.45;;
36715;SDS011;22699;51.034;3.730;2023-12-20T01:28:04;18.77;;;4.50;;
36715;SDS011;22699;51.034;3.730;2023-12-20T01:33:43;15.27;;;3.47;;
36715;SDS011;22699;51.034;3.730;2023-12-20T01:36:11;14.48;;;2.67;;
36715;SDS011;22699;51.034;3.730;2023-12-20T01:38:41;14.63;;;3.53;;
36715;SDS011;22699;51.034;3.730;2023-12-20T01:41:08;12.52;;;3.08;;
36715;SDS011;22699;51.034;3.730;2023-12-20T01:43:43;12.52;;;3.55;;
36715;SDS011;22699;51.034;3.730;2023-12-20T01:46:27;15.40;;;2.95;;
36715;SDS011;22699;51.034;3.730;2023-12-20T01:52:00;10.32;;;2.47;;
36715;SDS011;22699;51.034;3.730;2023-12-20T01:54:39;13.80;;;2.75;;
36715;SDS011;22699;51.034;3.730;2023-12-20T01:57:20;9.57;;;2.85;;
36715;SDS011;22699;51.034;3.730;2023-12-20T02:00:09;11.48;;;2.65;;
36715;SDS011;22699;51.034;3.730;2023-12-20T02:05:16;21.55;;;3.78;;
36715;SDS011;22699;51.034;3.730;2023-12-20T02:08:02;16.05;;;3.42;;
36715;SDS011;22699;51.034;3.730;2023-12-20T02:10:42;14.40;;;3.28;;
36715;SDS011;22699;51.034;3.730;2023-12-20T02:13:19;15.35;;;3.17;;
36715;SDS011;22699;51.034;3.730;2023-12-20T02:19:13;9.02;;;3.28;;
36715;SDS011;22699;51.034;3.730;2023-12-20T02:25:13;12.48;;;2.97;;
36715;SDS011;22699;51.034;3.730;2023-12-20T02:27:53;11.63;;;3.13;;
36715;SDS011;22699;51.034;3.730;2023-12-20T02:30:32;17.75;;;3.20;;
36715;SDS011;22699;51.034;3.730;2023-12-20T02:42:53;16.55;;;3.03;;
36715;SDS011;22699;51.034;3.730;2023-12-20T02:49:05;18.45;;;4.07;;
36715;SDS011;22699;51.034;3.730;2023-12-20T03:05:15;9.97;;;2.67;;
36715;SDS011;22699;51.034;3.730;2023-12-20T03:07:41;17.02;;;3.35;;
36715;SDS011;22699;51.034;3.730;2023-12-20T03:10:13;18.13;;;3.17;;
36715;SDS011;22699;51.034;3.730;2023-12-20T03:12:49;16.98;;;3.47;;
36715;SDS011;22699;51.034;3.730;2023-12-20T03:15:17;17.30;;;4.10;;
36715;SDS011;22699;51.034;3.730;2023-12-20T03:17:48;13.23;;;3.22;;
36715;SDS011;22699;51.034;3.730;2023-12-20T03:20:14;8.38;;;2.97;;
36715;SDS011;22699;51.034;3.730;2023-12-20T03:22:45;16.70;;;2.92;;
36715;SDS011;22699;51.034;3.730;2023-12-20T03:25:21;13.60;;;2.90;;
36715;SDS011;22699;51.034;3.730;2023-12-20T03:27:58;11.45;;;3.30;;
36715;SDS011;22699;51.034;3.730;2023-12-20T03:30:33;12.32;;;3.25;;
36715;SDS011;22699;51.034;3.730;2023-12-20T03:33:09;12.27;;;2.63;;
36715;SDS011;22699;51.034;3.730;2023-12-20T03:35:43;14.88;;;3.03;;
36715;SDS011;22699;51.034;3.730;2023-12-20T03:38:16;14.57;;;3.28;;
36715;SDS011;22699;51.034;3.730;2023-12-20T03:40:55;15.20;;;2.97;;
36715;SDS011;22699;51.034;3.730;2023-12-20T03:43:22;8.57;;;2.47;;
36715;SDS011;22699;51.034;3.730;2023-12-20T03:45:50;18.63;;;2.95;;
36715;SDS011;22699;51.034;3.730;2023-12-20T03:48:19;9.57;;;2.35;;
36715;SDS011;22699;51.034;3.730;2023-12-20T03:50:47;8.32;;;3.10;;
36715;SDS011;22699;51.034;3.730;2023-12-20T03:53:16;17.02;;;2.97;;
36715;SDS011;22699;51.034;3.730;2023-12-20T03:58:13;14.23;;;3.15;;
36715;SDS011;22699;51.034;3.730;2023-12-20T04:00:50;17.08;;;3.10;;
36715;SDS011;22699;51.034;3.730;2023-12-20T04:03:18;18.05;;;3.15;;
36715;SDS011;22699;51.034;3.730;2023-12-20T04:05:47;17.40;;;3.40;;
36715;SDS011;22699;51.034;3.730;2023-12-20T04:08:30;14.98;;;3.30;;
36715;SDS011;22699;51.034;3.730;2023-12-20T04:11:45;16.98;;;3.22;;
36715;SDS011;22699;51.034;3.730;2023-12-20T04:17:08;14.10;;;3.20;;
36715;SDS011;22699;51.034;3.730;2023-12-20T04:22:21;11.85;;;2.65;;
36715;SDS011;22699;51.034;3.730;2023-12-20T04:24:48;15.20;;;3.20;;
36715;SDS011;22699;51.034;3.730;2023-12-20T04:27:16;13.32;;;3.15;;
36715;SDS011;22699;51.034;3.730;2023-12-20T04:29:51;13.73;;;3.40;;
36715;SDS011;22699;51.034;3.730;2023-12-20T04:32:24;11.88;;;2.20;;
36715;SDS011;22699;51.034;3.730;2023-12-20T04:34:52;11.07;;;3.00;;
36715;SDS011;22699;51.034;3.730;2023-12-20T04:37:19;14.40;;;2.53;;
36715;SDS011;22699;51.034;3.730;2023-12-20T04:39:51;14.37;;;2.90;;
36715;SDS011;22699;51.034;3.730;2023-12-20T04:45:29;14.10;;;2.97;;
36715;SDS011;22699;51.034;3.730;2023-12-20T04:51:13;12.48;;;3.55;;
36715;SDS011;22699;51.034;3.730;2023-12-20T04:54:03;13.60;;;3.22;;
36715;SDS011;22699;51.034;3.730;2023-12-20T04:56:53;14.67;;;3.30;;
36715;SDS011;22699;51.034;3.730;2023-12-20T04:59:20;17.52;;;3.40;;
36715;SDS011;22699;51.034;3.730;2023-12-20T05:01:47;15.13;;;3.03;;
36715;SDS011;22699;51.034;3.730;2023-12-20T05:07:37;14.45;;;3.33;;
36715;SDS011;22699;51.034;3.730;2023-12-20T05:10:03;18.02;;;4.63;;
36715;SDS011;22699;51.034;3.730;2023-12-20T05:13:11;17.90;;;4.57;;
36715;SDS011;22699;51.034;3.730;2023-12-20T05:15:43;11.48;;;3.30;;
36715;SDS011;22699;51.034;3.730;2023-12-20T05:18:21;11.45;;;3.67;;
36715;SDS011;22699;51.034;3.730;2023-12-20T05:20:50;17.27;;;3.35;;
36715;SDS011;22699;51.034;3.730;2023-12-20T05:23:25;16.85;;;3.40;;
36715;SDS011;22699;51.034;3.730;2023-12-20T05:25:53;10.98;;;3.30;;
36715;SDS011;22699;51.034;3.730;2023-12-20T05:28:19;16.70;;;3.28;;
36715;SDS011;22699;51.034;3.730;2023-12-20T05:30:50;12.32;;;3.05;;
36715;SDS011;22699;51.034;3.730;2023-12-20T05:33:24;11.60;;;2.95;;
36715;SDS011;22699;51.034;3.730;2023-12-20T05:36:15;12.43;;;3.28;;
36715;SDS011;22699;51.034;3.730;2023-12-20T05:42:02;11.57;;;3.00;;
36715;SDS011;22699;51.034;3.730;2023-12-20T05:44:43;9.48;;;2.92;;
36715;SDS011;22699;51.034;3.730;2023-12-20T05:47:11;17.67;;;2.60;;
36715;SDS011;22699;51.034;3.730;2023-12-20T05:49:36;18.75;;;3.08;;
36715;SDS011;22699;51.034;3.730;2023-12-20T05:52:12;15.23;;;2.85;;
36715;SDS011;22699;51.034;3.730;2023-12-20T05:55:01;16.00;;;2.95;;
36715;SDS011;22699;51.034;3.730;2023-12-20T05:57:49;12.20;;;2.45;;
36715;SDS011;22699;51.034;3.730;2023-12-20T06:00:21;11.70;;;2.42;;
36715;SDS011;22699;51.034;3.730;2023-12-20T07:52:54;13.57;;;3.08;;
36715;SDS011;22699;51.034;3.730;2023-12-20T07:59:01;15.38;;;3.20;;
36715;SDS011;22699;51.034;3.730;2023-12-20T08:02:00;11.02;;;3.25;;
36715;SDS011;22699;51.034;3.730;2023-12-20T08:04:58;13.35;;;3.53;;
36715;SDS011;22699;51.034;3.730;2023-12-20T08:08:11;10.30;;;3.45;;
36715;SDS011;22699;51.034;3.730;2023-12-20T08:10:51;12.75;;;3.63;;
36715;SDS011;22699;51.034;3.730;2023-12-20T08:13:38;16.30;;;4.00;;
36715;SDS011;22699;51.034;3.730;2023-12-20T08:16:29;18.33;;;3.22;;
36715;SDS011;22699;51.034;3.730;2023-12-20T08:26:08;15.20;;;3.28;;
36715;SDS011;22699;51.034;3.730;2023-12-20T08:31:38;10.32;;;2.65;;
36715;SDS011;22699;51.034;3.730;2023-12-20T08:34:07;12.30;;;2.92;;
36715;SDS011;22699;51.034;3.730;2023-12-20T08:37:15;12.95;;;2.63;;
36715;SDS011;22699;51.034;3.730;2023-12-20T08:40:37;7.75;;;2.45;;
36715;SDS011;22699;51.034;3.730;2023-12-20T08:49:42;14.93;;;3.45;;
36715;SDS011;22699;51.034;3.730;2023-12-20T08:53:13;11.07;;;2.65;;
36715;SDS011;22699;51.034;3.730;2023-12-20T08:56:05;11.98;;;2.55;;
36715;SDS011;22699;51.034;3.730;2023-12-20T09:10:49;14.32;;;2.85;;
36715;SDS011;22699;51.034;3.730;2023-12-20T09:19:43;14.45;;;2.80;;
36715;SDS011;22699;51.034;3.730;2023-12-20T09:36:12;13.60;;;2.83;;
36715;SDS011;22699;51.034;3.730;2023-12-20T09:54:06;13.07;;;3.20;;
36715;SDS011;22699;51.034;3.730;2023-12-20T09:57:23;11.02;;;3.17;;
36715;SDS011;22699;51.034;3.730;2023-12-20T10:00:24;10.85;;;2.30;;
36715;SDS011;22699;51.034;3.730;2023-12-20T10:03:36;13.65;;;3.53;;
36715;SDS011;22699;51.034;3.730;2023-12-20T10:13:13;13.65;;;2.28;;
36715;SDS011;22699;51.034;3.730;2023-12-20T10:18:49;13.25;;;2.75;;
36715;SDS011;22699;51.034;3.730;2023-12-20T10:21:16;10.70;;;3.08;;
36715;SDS011;22699;51.034;3.730;2023-12-20T10:23:56;13.07;;;2.58;;
36715;SDS011;22699;51.034;3.730;2023-12-20T10:27:01;11.38;;;2.70;;
36715;SDS011;22699;51.034;3.730;2023-12-20T10:29:37;14.13;;;2.30;;
36715;SDS011;22699;51.034;3.730;2023-12-20T10:35:36;13.63;;;2.22;;
36715;SDS011;22699;51.034;3.730;2023-12-20T10:38:33;15.15;;;2.67;;
36715;SDS011;22699;51.034;3.730;2023-12-20T10:41:36;13.80;;;3.33;;
36715;SDS011;22699;51.034;3.730;2023-12-20T10:44:15;10.02;;;2.55;;
36715;SDS011;22699;51.034;3.730;2023-12-20T10:46:58;12.55;;;2.75;;
36715;SDS011;22699;51.034;3.730;2023-12-20T10:49:56;20.63;;;2.90;;
36715;SDS011;22699;51.034;3.730;2023-12-20T10:52:30;11.07;;;3.03;;
36715;SDS011;22699;51.034;3.730;2023-12-20T10:55:27;15.85;;;2.88;;
36715;SDS011;22699;51.034;3.730;2023-12-20T10:58:04;13.02;;;2.88;;
36715;SDS011;22699;51.034;3.730;2023-12-20T11:00:46;14.13;;;3.50;;
36715;SDS011;22699;51.034;3.730;2023-12-20T11:03:16;10.68;;;3.22;;
36715;SDS011;22699;51.034;3.730;2023-12-20T11:14:47;14.30;;;3.05;;
36715;SDS011;22699;51.034;3.730;2023-12-20T11:17:15;16.48;;;3.40;;
36715;SDS011;22699;51.034;3.730;2023-12-20T11:22:24;9.57;;;2.30;;
36715;SDS011;22699;51.034;3.730;2023-12-20T11:25:04;17.08;;;3.35;;
36715;SDS011;22699;51.034;3.730;2023-12-20T11:27:41;9.95;;;2.13;;
36715;SDS011;22699;51.034;3.730;2023-12-20T11:30:10;16.52;;;3.58;;
36715;SDS011;22699;51.034;3.730;2023-12-20T11:32:41;12.95;;;2.58;;
36715;SDS011;22699;51.034;3.730;2023-12-20T11:35:17;15.75;;;3.42;;
36715;SDS011;22699;51.034;3.730;2023-12-20T11:38:04;13.13;;;3.35;;
36715;SDS011;22699;51.034;3.730;2023-12-20T11:43:04;11.30;;;2.75;;
36715;SDS011;22699;51.034;3.730;2023-12-20T11:45:52;12.25;;;2.78;;
36715;SDS011;22699;51.034;3.730;2023-12-20T11:48:33;11.88;;;2.72;;
36715;SDS011;22699;51.034;3.730;2023-12-20T11:54:44;9.13;;;2.63;;
36715;SDS011;22699;51.034;3.730;2023-12-20T11:57:18;11.32;;;2.60;;
36715;SDS011;22699;51.034;3.730;2023-12-20T12:00:20;12.23;;;2.70;;
36715;SDS011;22699;51.034;3.730;2023-12-20T12:09:21;12.00;;;2.85;;
36715;SDS011;22699;51.034;3.730;2023-12-20T12:11:51;12.65;;;2.72;;
36715;SDS011;22699;51.034;3.730;2023-12-20T12:14:50;9.15;;;2.45;;
36715;SDS011;22699;51.034;3.730;2023-12-20T12:17:20;8.32;;;2.30;;
36715;SDS011;22699;51.034;3.730;2023-12-20T12:28:19;16.05;;;2.97;;
36715;SDS011;22699;51.034;3.730;2023-12-20T12:39:42;13.32;;;2.58;;
36715;SDS011;22699;51.034;3.730;2023-12-20T12:42:09;12.55;;;2.72;;
36715;SDS011;22699;51.034;3.730;2023-12-20T12:48:02;9.40;;;2.55;;
36715;SDS011;22699;51.034;3.730;2023-12-20T12:50:50;15.57;;;3.35;;
36715;SDS011;22699;51.034;3.730;2023-12-20T12:53:39;12.38;;;2.65;;
36715;SDS011;22699;51.034;3.730;2023-12-20T13:06:58;12.05;;;3.72;;
36715;SDS011;22699;51.034;3.730;2023-12-20T13:13:18;11.70;;;2.60;;
36715;SDS011;22699;51.034;3.730;2023-12-20T13:22:53;15.50;;;3.53;;
36715;SDS011;22699;51.034;3.730;2023-12-20T13:26:36;14.77;;;2.28;;
36715;SDS011;22699;51.034;3.730;2023-12-20T13:29:54;9.05;;;1.92;;
36715;SDS011;22699;51.034;3.730;2023-12-20T13:32:36;12.75;;;2.88;;
36715;SDS011;22699;51.034;3.730;2023-12-20T13:38:59;14.65;;;3.58;;
36715;SDS011;22699;51.034;3.730;2023-12-20T13:42:36;15.45;;;3.35;;
36715;SDS011;22699;51.034;3.730;2023-12-20T13:45:50;10.65;;;2.88;;
36715;SDS011;22699;51.034;3.730;2023-12-20T13:55:48;8.35;;;2.67;;
36715;SDS011;22699;51.034;3.730;2023-12-20T14:02:41;11.95;;;2.38;;
36715;SDS011;22699;51.034;3.730;2023-12-20T14:19:16;9.70;;;2.60;;
36715;SDS011;22699;51.034;3.730;2023-12-20T14:52:32;10.25;;;2.00;;
36715;SDS011;22699;51.034;3.730;2023-12-20T15:17:37;10.02;;;2.78;;
36715;SDS011;22699;51.034;3.730;2023-12-20T15:23:06;11.10;;;2.47;;
36715;SDS011;22699;51.034;3.730;2023-12-20T15:26:30;6.57;;;2.38;;
36715;SDS011;22699;51.034;3.730;2023-12-20T15:32:17;10.75;;;2.25;;
36715;SDS011;22699;51.034;3.730;2023-12-20T15:34:45;7.68;;;1.98;;
36715;SDS011;22699;51.034;3.730;2023-12-20T15:37:17;13.77;;;2.63;;
36715;SDS011;22699;51.034;3.730;2023-12-20T15:42:38;6.63;;;1.77;;
36715;SDS011;22699;51.034;3.730;2023-12-20T15:47:47;9.77;;;2.42;;
36715;SDS011;22699;51.034;3.730;2023-12-20T20:10:19;13.43;;;3.95;;
36715;SDS011;22699;51.034;3.730;2023-12-20T20:12:48;9.48;;;2.92;;
36715;SDS011;22699;51.034;3.730;2023-12-20T20:15:14;10.93;;;3.17;;
36715;SDS011;22699;51.034;3.730;2023-12-20T20:17:39;11.40;;;3.97;;
36715;SDS011;22699;51.034;3.730;2023-12-20T20:25:11;11.25;;;2.85;;
36715;SDS011;22699;51.034;3.730;2023-12-20T20:27:37;10.00;;;2.13;;
36715;SDS011;22699;51.034;3.730;2023-12-20T20:30:12;10.90;;;2.40;;
36715;SDS011;22699;51.034;3.730;2023-12-20T20:32:41;13.38;;;3.10;;
36715;SDS011;22699;51.034;3.730;2023-12-20T20:35:10;9.30;;;2.45;;
36715;SDS011;22699;51.034;3.730;2023-12-20T20:37:41;10.07;;;2.00;;
36715;SDS011;22699;51.034;3.730;2023-12-20T20:40:09;8.48;;;2.30;;
36715;SDS011;22699;51.034;3.730;2023-12-20T20:42:36;12.25;;;2.38;;
36715;SDS011;22699;51.034;3.730;2023-12-20T20:45:05;9.77;;;2.33;;
36715;SDS011;22699;51.034;3.730;2023-12-20T20:47:36;12.25;;;2.63;;
36715;SDS011;22699;51.034;3.730;2023-12-20T20:50:09;7.55;;;2.45;;
36715;SDS011;22699;51.034;3.730;2023-12-20T20:52:51;7.60;;;2.53;;
36715;SDS011;22699;51.034;3.730;2023-12-20T20:55:17;12.80;;;2.80;;
36715;SDS011;22699;51.034;3.730;2023-12-20T20:57:43;6.40;;;2.78;;
36715;SDS011;22699;51.034;3.730;2023-12-20T21:00:32;9.32;;;2.40;;
36715;SDS011;22699;51.034;3.730;2023-12-20T21:03:02;9.68;;;2.75;;
36715;SDS011;22699;51.034;3.730;2023-12-20T21:05:28;12.75;;;2.78;;
36715;SDS011;22699;51.034;3.730;2023-12-20T21:07:53;9.85;;;2.17;;
36715;SDS011;22699;51.034;3.730;2023-12-20T21:10:23;14.82;;;2.63;;
36715;SDS011;22699;51.034;3.730;2023-12-20T21:12:49;8.70;;;2.13;;
36715;SDS011;22699;51.034;3.730;2023-12-20T21:15:14;7.45;;;2.30;;
36715;SDS011;22699;51.034;3.730;2023-12-20T21:17:40;11.63;;;2.20;;
36715;SDS011;22699;51.034;3.730;2023-12-20T21:20:11;5.43;;;1.90;;
36715;SDS011;22699;51.034;3.730;2023-12-20T21:22:39;9.13;;;2.53;;
36715;SDS011;22699;51.034;3.730;2023-12-20T21:25:06;8.50;;;2.28;;
36715;SDS011;22699;51.034;3.730;2023-12-20T21:27:34;10.32;;;2.72;;
36715;SDS011;22699;51.034;3.730;2023-12-20T21:30:01;12.23;;;2.80;;
36715;SDS011;22699;51.034;3.730;2023-12-20T21:32:30;9.00;;;1.83;;
36715;SDS011;22699;51.034;3.730;2023-12-20T21:34:56;5.18;;;1.98;;
36715;SDS011;22699;51.034;3.730;2023-12-20T21:37:23;9.07;;;2.53;;
36715;SDS011;22699;51.034;3.730;2023-12-20T21:39:52;10.95;;;2.35;;
36715;SDS011;22699;51.034;3.730;2023-12-20T21:42:43;8.15;;;1.85;;
36715;SDS011;22699;51.034;3.730;2023-12-20T21:45:15;18.55;;;2.75;;
36715;SDS011;22699;51.034;3.730;2023-12-20T21:48:07;5.75;;;1.88;;
36715;SDS011;22699;51.034;3.730;2023-12-20T21:50:35;7.55;;;1.65;;
36715;SDS011;22699;51.034;3.730;2023-12-20T21:53:04;12.68;;;2.40;;
36715;SDS011;22699;51.034;3.730;2023-12-20T21:55:35;8.23;;;1.80;;
36715;SDS011;22699;51.034;3.730;2023-12-20T21:58:01;9.18;;;2.17;;
36715;SDS011;22699;51.034;3.730;2023-12-20T22:00:27;9.27;;;2.22;;
36715;SDS011;22699;51.034;3.730;2023-12-20T22:02:52;11.50;;;3.40;;
36715;SDS011;22699;51.034;3.730;2023-12-20T22:05:18;8.00;;;2.00;;
36715;SDS011;22699;51.034;3.730;2023-12-20T22:07:44;7.40;;;1.85;;
36715;SDS011;22699;51.034;3.730;2023-12-20T22:10:11;10.13;;;2.08;;
36715;SDS011;22699;51.034;3.730;2023-12-20T22:12:37;10.18;;;2.13;;
36715;SDS011;22699;51.034;3.730;2023-12-20T22:15:04;5.35;;;1.60;;
36715;SDS011;22699;51.034;3.730;2023-12-20T22:17:30;13.05;;;2.50;;
36715;SDS011;22699;51.034;3.730;2023-12-20T22:19:56;8.88;;;1.90;;
36715;SDS011;22699;51.034;3.730;2023-12-20T22:22:21;6.55;;;1.92;;
36715;SDS011;22699;51.034;3.730;2023-12-20T22:24:47;10.18;;;2.00;;
36715;SDS011;22699;51.034;3.730;2023-12-20T22:27:13;7.07;;;2.03;;
36715;SDS011;22699;51.034;3.730;2023-12-20T22:29:40;10.77;;;2.17;;
36715;SDS011;22699;51.034;3.730;2023-12-20T22:32:07;10.10;;;2.45;;
36715;SDS011;22699;51.034;3.730;2023-12-20T22:34:35;9.23;;;2.17;;
36715;SDS011;22699;51.034;3.730;2023-12-20T22:39:30;9.90;;;2.40;;
36715;SDS011;22699;51.034;3.730;2023-12-20T22:41:56;7.93;;;2.05;;
36715;SDS011;22699;51.034;3.730;2023-12-20T22:44:21;10.13;;;2.15;;
36715;SDS011;22699;51.034;3.730;2023-12-20T22:46:47;11.30;;;1.75;;
36715;SDS011;22699;51.034;3.730;2023-12-20T22:49:12;6.03;;;1.52;;
36715;SDS011;22699;51.034;3.730;2023-12-20T22:51:38;8.63;;;2.60;;
36715;SDS011;22699;51.034;3.730;2023-12-20T22:54:04;5.85;;;1.55;;
36715;SDS011;22699;51.034;3.730;2023-12-20T22:56:30;8.23;;;1.73;;
36715;SDS011;22699;51.034;3.730;2023-12-20T22:58:56;12.70;;;2.45;;
36715;SDS011;22699;51.034;3.730;2023-12-20T23:01:22;6.35;;;2.08;;
36715;SDS011;22699;51.034;3.730;2023-12-20T23:03:47;11.32;;;3.10;;
36715;SDS011;22699;51.034;3.730;2023-12-20T23:06:13;7.53;;;1.67;;
36715;SDS011;22699;51.034;3.730;2023-12-20T23:08:40;8.30;;;1.95;;
36715;SDS011;22699;51.034;3.730;2023-12-20T23:11:05;9.32;;;2.20;;
36715;SDS011;22699;51.034;3.730;2023-12-20T23:13:31;8.25;;;1.88;;
36715;SDS011;22699;51.034;3.730;2023-12-20T23:15:56;8.93;;;2.03;;
36715;SDS011;22699;51.034;3.730;2023-12-20T23:18:22;10.48;;;2.53;;
36715;SDS011;22699;51.034;3.730;2023-12-20T23:20:48;8.07;;;2.03;;
36715;SDS011;22699;51.034;3.730;2023-12-20T23:23:14;13.70;;;2.22;;
36715;SDS011;22699;51.034;3.730;2023-12-20T23:25:40;7.72;;;1.70;;
36715;SDS011;22699;51.034;3.730;2023-12-20T23:28:06;8.05;;;2.22;;
36715;SDS011;22699;51.034;3.730;2023-12-20T23:30:32;13.73;;;1.95;;
36715;SDS011;22699;51.034;3.730;2023-12-20T23:32:58;9.40;;;3.05;;
36715;SDS011;22699;51.034;3.730;2023-12-20T23:35:24;7.43;;;1.98;;
36715;SDS011;22699;51.034;3.730;2023-12-20T23:37:50;7.35;;;2.33;;
36715;SDS011;22699;51.034;3.730;2023-12-20T23:40:17;7.97;;;1.50;;
36715;SDS011;22699;51.034;3.730;2023-12-20T23:42:43;6.60;;;1.85;;
36715;SDS011;22699;51.034;3.730;2023-12-20T23:45:08;10.93;;;2.58;;
36715;SDS011;22699;51.034;3.730;2023-12-20T23:47:36;6.38;;;1.70;;
36715;SDS011;22699;51.034;3.730;2023-12-20T23:50:02;10.98;;;1.92;;
36715;SDS011;22699;51.034;3.730;2023-12-20T23:52:28;6.70;;;1.60;;
36715;SDS011;22699;51.034;3.730;2023-12-20T23:54:54;9.68;;;2.42;;
36715;SDS011;22699;51.034;3.730;2023-12-20T23:57:19;11.65;;;2.05;;
36715;SDS011;22699;51.034;3.730;2023-12-20T23:59:46;8.73;;;1.50;;
